RAMO2: Caney River, Ramona, OK

                                SHEF ID:       RAMO2     Caney River near Ramona, OK
STATION TYPE:
Regulating: Stage = 26.00, Flow = 15426

PRECIP STAGE STAGE(2) RIV-FLOW VOLTAGE BAT-LOAD
in ft ft cfs volt volt
Ccp-Rev Ccp-Rev Ccp-Rev Ccp-Rev Ccp-Rev Ccp-Rev
(America/Chicago)
04/26 00:00 0.00 6.93 99999.00 2330 12.80 ----
04/26 01:00 0.00 6.85 99999.00 2284 12.80 ----
04/26 02:00 0.00 6.76 99999.00 2232 12.80 ----
04/26 03:00 0.00 6.71 99999.00 2203 12.80 ----
04/26 04:00 0.00 6.66 99999.00 2174 12.80 ----
04/26 05:00 0.00 6.58 99999.00 2127 12.80 ----
04/26 06:00 0.00 6.53 99999.00 2098 12.70 ----
04/26 07:00 0.00 6.49 99999.00 2075 12.70 ----
04/26 08:00 0.00 6.45 99999.00 2052 12.80 ----
04/26 09:00 0.00 6.42 99999.00 2035 13.30 ----
04/26 10:00 0.00 6.44 99999.00 2046 13.50 ----
04/26 11:00 0.00 6.44 99999.00 2046 13.50 ----
04/26 12:00 0.00 6.52 99999.00 2092 13.60 ----
04/26 13:00 0.00 6.59 99999.00 2133 13.60 ----
04/26 14:00 0.00 6.67 99999.00 2179 13.60 ----
04/26 15:00 0.00 6.74 99999.00 2220 13.60 ----
04/26 16:00 0.00 6.81 99999.00 2261 13.50 ----
04/26 17:00 0.00 6.86 99999.00 2290 13.60 ----
04/26 18:00 0.00 6.85 99999.00 2284 13.60 ----
04/26 19:00 0.00 6.85 99999.00 2284 13.30 ----
04/26 20:00 0.00 6.84 99999.00 2278 13.00 ----
04/26 21:00 0.00 6.81 99999.00 2261 13.00 ----
04/26 22:00 0.00 6.75 99999.00 2226 12.90 ----
04/26 23:00 ---- ---- ---- ---- ---- ----
Data processed at Mon 27Apr2026 03:01 GMT

NOTICE: If you are parsing this page

Please convert to using our Data API. Starting early 2026 we will be migrating to: https://water.usace.army.mil with modern pages rendered in JavaScript. When this migration completes you will no longer be able to scrape this page! CWMSDataAPI (CDA)

Timeseries IDs (TSIDs)

TSIDs used from left to right in the data table
RAMO.Precip-Inc.Total.1Hour.1Hour.Ccp-Rev
RAMO.Stage.Inst.1Hour.0.Ccp-Rev
RAMO.Stage-Alt.Inst.1Hour.0.Ccp-Rev
RAMO.Flow.Inst.1Hour.0.Ccp-Rev
RAMO.Volt-Battery.Inst.1Hour.0.Ccp-Rev
RAMO.Volt-Battery Load.Inst.1Hour.0.Ccp-Rev

                            

All information presented herein is the property of the government of the United States of America and may be revised or deleted at any time without prior notice. Dissemination of this information without the expressed written consent of the Public Affairs Office, Tulsa District U.S. Army Corps of Engineers is strictly prohibited. These data are gathered electronically and, as presented, have NOT undergone any form of quality control. These data are NOT guaranteed to be valid or correct.